createdAt,value
2022-10-08T00:00:56.581Z,17.50
2022-10-08T00:01:56.636Z,17.50
2022-10-08T00:02:56.553Z,18.80
2022-10-08T00:03:56.621Z,18.00
2022-10-08T00:04:56.523Z,18.70
2022-10-08T00:05:56.512Z,17.90
2022-10-08T00:06:56.516Z,17.50
2022-10-08T00:07:56.504Z,18.30
2022-10-08T00:08:56.516Z,18.50
2022-10-08T00:09:56.474Z,17.70
2022-10-08T00:10:56.467Z,18.30
2022-10-08T00:11:56.453Z,17.60
2022-10-08T00:12:56.422Z,18.30
2022-10-08T00:13:56.419Z,18.50
2022-10-08T00:14:56.458Z,18.30
2022-10-08T00:15:56.424Z,18.20
2022-10-08T00:16:56.385Z,17.90
2022-10-08T00:17:56.374Z,18.00
2022-10-08T00:18:56.354Z,19.10
2022-10-08T00:19:56.399Z,18.10
2022-10-08T00:20:56.334Z,19.40
2022-10-08T00:21:56.324Z,17.30
2022-10-08T00:22:56.326Z,18.40
2022-10-08T00:23:56.284Z,18.90
2022-10-08T00:24:56.271Z,18.20
2022-10-08T00:25:56.312Z,18.20
2022-10-08T00:26:56.252Z,18.10
2022-10-08T00:27:56.264Z,17.90
2022-10-08T00:28:56.221Z,18.30
2022-10-08T00:29:56.203Z,17.70
2022-10-08T00:30:56.196Z,17.70
2022-10-08T00:31:56.219Z,18.50
2022-10-08T00:32:59.791Z,18.90
2022-10-08T00:33:56.161Z,18.90
2022-10-08T00:34:56.146Z,19.20
2022-10-08T00:35:56.135Z,19.10
2022-10-08T00:36:56.129Z,18.40
2022-10-08T00:37:56.105Z,19.00
2022-10-08T00:38:56.092Z,17.90
2022-10-08T00:39:56.079Z,18.70
2022-10-08T00:40:56.062Z,19.50
2022-10-08T00:41:56.066Z,19.90
2022-10-08T00:42:56.043Z,18.40
2022-10-08T00:43:56.023Z,18.40
2022-10-08T00:44:56.003Z,18.10
2022-10-08T00:45:56.032Z,18.30
2022-10-08T00:46:55.995Z,17.70
2022-10-08T00:47:55.994Z,18.20
2022-10-08T00:48:55.967Z,17.70
2022-10-08T00:49:55.954Z,18.30
2022-10-08T00:50:55.942Z,17.80
2022-10-08T00:51:55.937Z,18.10
2022-10-08T00:52:55.928Z,18.20
2022-10-08T00:53:55.905Z,17.90
2022-10-08T00:54:55.881Z,18.20
2022-10-08T00:55:55.884Z,18.50
2022-10-08T00:56:55.854Z,19.10
2022-10-08T00:57:55.842Z,18.10
2022-10-08T00:58:55.874Z,18.50
2022-10-08T00:59:55.812Z,18.10
2022-10-08T01:00:55.820Z,18.20
2022-10-08T01:01:55.834Z,19.60
2022-10-08T01:02:55.784Z,18.50
2022-10-08T01:03:55.775Z,18.40
2022-10-08T01:04:55.774Z,18.10
2022-10-08T01:05:55.747Z,18.50
2022-10-08T01:06:55.735Z,17.90
2022-10-08T01:07:55.725Z,18.40
2022-10-08T01:08:55.706Z,18.40
2022-10-08T01:09:55.694Z,19.00
2022-10-08T01:10:55.715Z,18.60
2022-10-08T01:11:55.664Z,18.20
2022-10-08T01:12:55.663Z,19.70
2022-10-08T01:13:55.643Z,18.80
2022-10-08T01:14:55.625Z,18.60
2022-10-08T01:15:55.640Z,18.70
2022-10-08T01:16:55.605Z,18.90
2022-10-08T01:17:55.584Z,18.10
2022-10-08T01:18:55.563Z,18.40
2022-10-08T01:19:55.563Z,18.40
2022-10-08T01:20:55.533Z,18.40
2022-10-08T01:21:55.533Z,18.40
2022-10-08T01:22:55.521Z,19.00
2022-10-08T01:23:55.493Z,18.10
2022-10-08T01:25:02.641Z,18.20
2022-10-08T01:25:55.492Z,18.50
2022-10-08T01:26:55.474Z,18.20
2022-10-08T01:27:55.462Z,18.30
2022-10-08T01:28:55.452Z,18.60
2022-10-08T01:29:55.482Z,18.90
2022-10-08T01:30:55.426Z,17.80
2022-10-08T01:31:55.465Z,19.10
2022-10-08T01:32:55.420Z,18.20
2022-10-08T01:33:55.379Z,18.40
2022-10-08T01:34:55.402Z,18.80
2022-10-08T01:35:55.372Z,19.40
2022-10-08T01:36:55.348Z,18.80
2022-10-08T01:37:55.387Z,18.20
2022-10-08T01:38:55.305Z,18.50
2022-10-08T01:39:55.291Z,18.60
2022-10-08T01:40:55.303Z,18.10
2022-10-08T01:41:55.281Z,18.10
2022-10-08T01:42:55.263Z,18.50
2022-10-08T01:43:55.352Z,18.70
2022-10-08T01:44:55.262Z,18.50
2022-10-08T01:45:55.352Z,17.90
2022-10-08T01:46:55.213Z,18.70
2022-10-08T01:47:55.200Z,18.20
2022-10-08T01:48:55.179Z,18.50
2022-10-08T01:49:55.180Z,18.20
2022-10-08T01:50:55.222Z,18.00
2022-10-08T01:51:55.163Z,18.40
2022-10-08T01:52:55.121Z,19.30
2022-10-08T01:53:55.119Z,17.90
2022-10-08T01:54:55.101Z,18.40
2022-10-08T01:55:55.091Z,18.20
2022-10-08T01:56:55.072Z,17.80
2022-10-08T01:57:55.092Z,18.30
2022-10-08T01:58:55.051Z,17.80
2022-10-08T01:59:55.043Z,18.40
2022-10-08T02:00:55.073Z,17.90
2022-10-08T02:01:55.045Z,18.00
2022-10-08T02:02:55.042Z,17.80
2022-10-08T02:03:54.991Z,17.80
2022-10-08T02:04:54.982Z,17.50
2022-10-08T02:05:54.972Z,18.00
2022-10-08T02:06:54.949Z,17.80
2022-10-08T02:07:54.952Z,17.40
2022-10-08T02:08:54.951Z,18.00
2022-10-08T02:09:54.942Z,17.20
2022-10-08T02:10:54.898Z,17.40
2022-10-08T02:11:54.878Z,18.20
2022-10-08T02:12:54.895Z,18.10
2022-10-08T02:13:54.891Z,17.60
2022-10-08T02:14:54.845Z,17.60
2022-10-08T02:15:54.833Z,17.70
2022-10-08T02:16:54.885Z,18.70
2022-10-08T02:17:54.822Z,17.90
2022-10-08T02:18:54.811Z,18.90
2022-10-08T02:19:54.790Z,17.60
2022-10-08T02:20:54.769Z,17.40
2022-10-08T02:21:54.782Z,17.70
2022-10-08T02:22:54.762Z,17.80
2022-10-08T02:23:54.753Z,17.40
2022-10-08T02:24:54.733Z,17.90
2022-10-08T02:25:54.702Z,18.20
2022-10-08T02:26:54.694Z,18.20
2022-10-08T02:27:54.690Z,17.90
2022-10-08T02:28:54.759Z,18.20
2022-10-08T02:29:54.643Z,18.10
2022-10-08T02:30:54.750Z,18.50
2022-10-08T02:31:54.778Z,18.50
2022-10-08T02:32:54.613Z,17.70
2022-10-08T02:33:54.594Z,18.10
2022-10-08T02:34:54.594Z,17.70
2022-10-08T02:35:54.571Z,18.50
2022-10-08T02:36:54.572Z,18.00
2022-10-08T02:37:54.573Z,18.10
2022-10-08T02:38:54.562Z,18.40
2022-10-08T02:39:54.533Z,18.00
2022-10-08T02:40:54.503Z,18.10
2022-10-08T02:41:54.503Z,17.90
2022-10-08T02:42:54.494Z,17.80
2022-10-08T02:43:54.490Z,18.20
2022-10-08T02:44:54.453Z,18.40
2022-10-08T02:45:54.474Z,18.30
2022-10-08T02:46:54.530Z,17.70
2022-10-08T02:47:54.432Z,18.20
2022-10-08T02:48:54.410Z,17.90
2022-10-08T02:49:54.403Z,19.80
2022-10-08T02:50:54.383Z,18.50
2022-10-08T02:51:54.387Z,18.50
2022-10-08T02:52:54.353Z,18.30
2022-10-08T02:53:54.352Z,18.20
2022-10-08T02:54:54.344Z,19.00
2022-10-08T02:55:54.336Z,18.60
2022-10-08T02:56:54.311Z,17.70
2022-10-08T02:57:54.293Z,18.90
2022-10-08T02:58:54.315Z,17.30
2022-10-08T02:59:54.284Z,18.30
2022-10-08T03:00:54.333Z,18.40
2022-10-08T03:01:54.306Z,18.50
2022-10-08T03:02:54.221Z,18.70
2022-10-08T03:03:54.215Z,18.10
2022-10-08T03:04:54.192Z,19.10
2022-10-08T03:05:54.212Z,18.50
2022-10-08T03:06:54.208Z,18.20
2022-10-08T03:07:54.152Z,18.40
2022-10-08T03:08:54.143Z,18.40
2022-10-08T03:09:54.134Z,18.40
2022-10-08T03:10:54.122Z,18.60
2022-10-08T03:11:54.114Z,18.20
2022-10-08T03:12:54.083Z,18.00
2022-10-08T03:13:54.104Z,18.30
2022-10-08T03:14:54.132Z,18.20
2022-10-08T03:15:54.144Z,18.90
2022-10-08T03:16:54.096Z,18.60
2022-10-08T03:17:54.029Z,18.30
2022-10-08T03:18:54.002Z,18.50
2022-10-08T03:19:54.002Z,17.90
2022-10-08T03:20:54.022Z,19.30
2022-10-08T03:21:53.982Z,18.00
2022-10-08T03:22:53.985Z,18.40
2022-10-08T03:23:53.945Z,18.40
2022-10-08T03:24:56.851Z,18.60
2022-10-08T03:25:53.933Z,18.80
2022-10-08T03:26:53.921Z,18.50
2022-10-08T03:27:53.881Z,18.80
2022-10-08T03:28:53.873Z,18.50
2022-10-08T03:29:53.873Z,19.10
2022-10-08T03:30:53.925Z,18.90
2022-10-08T03:31:53.842Z,18.90
2022-10-08T03:32:53.844Z,18.80
2022-10-08T03:33:53.823Z,19.20
2022-10-08T03:34:53.833Z,18.30
2022-10-08T03:35:53.793Z,19.20
2022-10-08T03:36:53.820Z,18.80
2022-10-08T03:37:53.803Z,18.40
2022-10-08T03:38:53.774Z,18.60
2022-10-08T03:39:53.745Z,18.20
2022-10-08T03:40:53.741Z,19.00
2022-10-08T03:41:53.730Z,18.70
2022-10-08T03:42:53.710Z,18.60
2022-10-08T03:43:53.712Z,18.80
2022-10-08T03:44:53.677Z,18.40
2022-10-08T03:45:53.815Z,18.70
2022-10-08T03:46:53.643Z,20.00
2022-10-08T03:47:53.625Z,18.70
2022-10-08T03:48:53.644Z,18.40
2022-10-08T03:49:53.623Z,18.90
2022-10-08T03:50:53.604Z,18.60
2022-10-08T03:51:53.605Z,18.40
2022-10-08T03:52:53.574Z,19.80
2022-10-08T03:53:53.572Z,18.80
2022-10-08T03:54:53.556Z,18.70
2022-10-08T03:55:53.553Z,18.90
2022-10-08T03:56:53.541Z,18.40
2022-10-08T03:57:53.502Z,18.30
2022-10-08T03:58:53.497Z,18.40
2022-10-08T03:59:53.507Z,18.60
2022-10-08T04:00:53.469Z,18.20
2022-10-08T04:01:53.482Z,18.60
2022-10-08T04:02:53.512Z,18.20
2022-10-08T04:03:53.444Z,18.40
2022-10-08T04:04:53.424Z,18.00
2022-10-08T04:05:53.406Z,18.40
2022-10-08T04:06:53.395Z,18.00
2022-10-08T04:07:53.386Z,17.90
2022-10-08T04:08:53.368Z,17.90
2022-10-08T04:09:53.467Z,18.10
2022-10-08T04:10:53.334Z,17.70
2022-10-08T04:11:53.346Z,18.80
2022-10-08T04:12:53.353Z,17.80
2022-10-08T04:13:53.306Z,18.40
2022-10-08T04:14:53.304Z,18.10
2022-10-08T04:15:53.332Z,17.70
2022-10-08T04:16:53.274Z,17.80
2022-10-08T04:17:53.252Z,18.10
2022-10-08T04:18:53.242Z,18.30
2022-10-08T04:19:53.245Z,18.10
2022-10-08T04:20:53.246Z,18.40
2022-10-08T04:21:53.195Z,18.20
2022-10-08T04:22:53.185Z,19.60
2022-10-08T04:23:53.175Z,18.20
2022-10-08T04:24:53.163Z,18.50
2022-10-08T04:25:53.135Z,17.80
2022-10-08T04:26:53.130Z,18.20
2022-10-08T04:27:53.152Z,18.00
2022-10-08T04:28:53.149Z,18.40
2022-10-08T04:29:53.135Z,17.80
2022-10-08T04:30:53.141Z,18.90
2022-10-08T04:31:53.065Z,18.30
2022-10-08T04:32:53.054Z,18.30
2022-10-08T04:33:53.037Z,18.50
2022-10-08T04:34:53.044Z,18.80
2022-10-08T04:35:57.447Z,18.30
2022-10-08T04:36:53.997Z,18.60
2022-10-08T04:37:53.028Z,18.10
2022-10-08T04:38:52.983Z,19.70
2022-10-08T04:39:52.973Z,19.30
2022-10-08T04:40:52.943Z,17.90
2022-10-08T04:41:52.927Z,19.20
2022-10-08T04:42:52.916Z,18.10
2022-10-08T04:43:52.907Z,18.30
2022-10-08T04:44:52.903Z,18.30
2022-10-08T04:45:52.978Z,19.10
2022-10-08T04:46:52.877Z,18.10
2022-10-08T04:47:52.856Z,19.70
2022-10-08T04:48:52.879Z,18.30
2022-10-08T04:49:52.834Z,18.60
2022-10-08T04:50:52.837Z,18.80
2022-10-08T04:51:52.812Z,19.20
2022-10-08T04:52:52.793Z,18.50
2022-10-08T04:53:52.794Z,18.40
2022-10-08T04:54:52.820Z,18.80
2022-10-08T04:55:52.777Z,18.40
2022-10-08T04:56:52.772Z,18.50
2022-10-08T04:57:52.746Z,18.90
2022-10-08T04:58:52.733Z,19.20
2022-10-08T05:00:16.588Z,18.70
2022-10-08T05:00:53.715Z,19.70
2022-10-08T05:01:52.774Z,19.30
2022-10-08T05:02:52.707Z,18.30
2022-10-08T05:03:52.648Z,19.30
2022-10-08T05:04:52.658Z,19.00
2022-10-08T05:05:52.663Z,19.20
2022-10-08T05:06:52.643Z,19.00
2022-10-08T05:07:52.606Z,19.00
2022-10-08T05:08:52.587Z,19.00
2022-10-08T05:09:52.563Z,19.10
2022-10-08T05:10:52.554Z,18.90
2022-10-08T05:11:52.577Z,19.20
2022-10-08T05:12:52.557Z,20.00
2022-10-08T05:13:52.512Z,19.00
2022-10-08T05:14:52.513Z,19.70
2022-10-08T05:15:52.527Z,18.80
2022-10-08T05:16:52.495Z,18.90
2022-10-08T05:17:52.465Z,19.30
2022-10-08T05:18:52.459Z,18.90
2022-10-08T05:19:52.437Z,19.20
2022-10-08T05:20:52.445Z,19.20
2022-10-08T05:21:52.426Z,18.90
2022-10-08T05:22:52.443Z,19.10
2022-10-08T05:23:52.386Z,19.20
2022-10-08T05:24:52.406Z,19.70
2022-10-08T05:25:52.365Z,19.80
2022-10-08T05:26:59.708Z,19.30
2022-10-08T05:27:53.406Z,20.10
2022-10-08T05:28:52.328Z,19.30
2022-10-08T05:29:52.306Z,20.10
2022-10-08T05:30:52.370Z,19.50
2022-10-08T05:31:52.316Z,19.30
2022-10-08T05:32:52.296Z,20.70
2022-10-08T05:33:52.263Z,19.40
2022-10-08T05:34:52.246Z,19.80
2022-10-08T05:35:52.224Z,19.00
2022-10-08T05:36:52.240Z,19.60
2022-10-08T05:37:52.237Z,20.00
2022-10-08T05:38:52.223Z,19.30
2022-10-08T05:39:52.174Z,20.10
2022-10-08T05:40:52.173Z,20.10
2022-10-08T05:41:52.155Z,19.80
2022-10-08T05:42:52.175Z,19.20
2022-10-08T05:43:52.125Z,19.50
2022-10-08T05:44:52.145Z,19.50
2022-10-08T05:45:52.096Z,20.00
2022-10-08T05:46:52.173Z,19.20
2022-10-08T05:47:52.106Z,18.90
2022-10-08T05:48:52.083Z,19.90
2022-10-08T05:49:52.047Z,18.90
2022-10-08T05:50:52.056Z,19.10
2022-10-08T05:51:52.034Z,19.10
2022-10-08T05:52:52.034Z,19.10
2022-10-08T05:53:52.003Z,18.70
2022-10-08T05:54:51.992Z,19.20
2022-10-08T05:55:51.968Z,19.10
2022-10-08T05:56:51.967Z,18.90
2022-10-08T05:57:51.967Z,19.20
2022-10-08T05:58:51.965Z,18.90
2022-10-08T05:59:51.941Z,19.00
2022-10-08T06:00:51.937Z,19.60
2022-10-08T06:01:51.941Z,19.30
2022-10-08T06:02:51.958Z,19.90
2022-10-08T06:03:51.935Z,18.90
2022-10-08T06:04:51.897Z,19.40
2022-10-08T06:05:51.834Z,19.00
2022-10-08T06:06:51.827Z,19.60
2022-10-08T06:07:51.825Z,19.40
2022-10-08T06:08:51.794Z,19.70
2022-10-08T06:09:51.843Z,19.60
2022-10-08T06:10:51.781Z,19.20
2022-10-08T06:11:51.758Z,19.90
2022-10-08T06:12:51.814Z,19.90
2022-10-08T06:13:51.746Z,19.50
2022-10-08T06:14:51.745Z,20.00
2022-10-08T06:15:51.737Z,19.10
2022-10-08T06:16:51.726Z,19.30
2022-10-08T06:17:51.694Z,19.10
2022-10-08T06:18:51.705Z,19.10
2022-10-08T06:19:51.695Z,20.00
2022-10-08T06:20:51.667Z,19.30
2022-10-08T06:21:51.623Z,19.50
2022-10-08T06:22:51.635Z,19.40
2022-10-08T06:23:51.603Z,19.90
2022-10-08T06:24:51.625Z,19.70
2022-10-08T06:25:51.601Z,20.10
2022-10-08T06:26:51.585Z,19.00
2022-10-08T06:27:51.556Z,19.80
2022-10-08T06:28:51.573Z,19.30
2022-10-08T06:29:51.566Z,19.30
2022-10-08T06:30:51.545Z,20.60
2022-10-08T06:31:51.563Z,19.70
2022-10-08T06:32:51.499Z,19.80
2022-10-08T06:33:51.512Z,19.90
2022-10-08T06:34:51.474Z,19.50
2022-10-08T06:35:51.531Z,19.50
2022-10-08T06:36:51.472Z,19.10
2022-10-08T06:37:51.466Z,19.20
2022-10-08T06:38:51.415Z,18.70
2022-10-08T06:39:51.407Z,20.00
2022-10-08T06:40:51.488Z,18.70
2022-10-08T06:41:51.377Z,18.80
2022-10-08T06:42:51.395Z,19.40
2022-10-08T06:43:51.377Z,18.30
2022-10-08T06:44:51.364Z,19.10
2022-10-08T06:45:51.344Z,18.50
2022-10-08T06:46:51.358Z,19.20
2022-10-08T06:47:51.325Z,18.90
2022-10-08T06:48:51.292Z,18.90
2022-10-08T06:49:51.297Z,17.70
2022-10-08T06:50:51.279Z,18.20
2022-10-08T06:51:51.255Z,18.20
2022-10-08T06:52:51.245Z,19.00
2022-10-08T06:53:51.258Z,19.60
2022-10-08T06:54:51.216Z,18.70
2022-10-08T06:55:51.258Z,18.10
2022-10-08T06:56:51.219Z,18.50
2022-10-08T06:57:51.206Z,18.60
2022-10-08T06:58:51.173Z,17.70
2022-10-08T06:59:51.148Z,17.90
2022-10-08T07:00:51.200Z,17.80
2022-10-08T07:01:51.165Z,18.10
2022-10-08T07:02:51.139Z,17.90
2022-10-08T07:03:51.145Z,19.70
2022-10-08T07:04:51.072Z,18.40
2022-10-08T07:05:51.121Z,18.30
2022-10-08T07:06:51.056Z,18.40
2022-10-08T07:07:51.045Z,18.50
2022-10-08T07:08:51.046Z,18.10
2022-10-08T07:09:51.016Z,18.60
2022-10-08T07:10:51.009Z,18.10
2022-10-08T07:11:50.997Z,18.30
2022-10-08T07:12:51.041Z,18.10
2022-10-08T07:13:50.966Z,18.10
2022-10-08T07:14:50.956Z,17.70
2022-10-08T07:15:51.005Z,17.70
2022-10-08T07:16:50.963Z,17.70
2022-10-08T07:17:50.931Z,17.60
2022-10-08T07:18:50.913Z,17.70
2022-10-08T07:19:50.877Z,17.60
2022-10-08T07:20:50.871Z,17.70
2022-10-08T07:21:50.869Z,17.20
2022-10-08T07:22:50.882Z,17.70
2022-10-08T07:23:50.854Z,17.00
2022-10-08T07:24:50.828Z,17.20
2022-10-08T07:25:57.985Z,17.70
2022-10-08T07:26:50.826Z,16.50
2022-10-08T07:27:50.798Z,16.60
2022-10-08T07:28:50.766Z,16.40
2022-10-08T07:29:50.764Z,16.70
2022-10-08T07:30:50.741Z,16.70
2022-10-08T07:31:50.751Z,16.80
2022-10-08T07:32:50.714Z,17.10
2022-10-08T07:33:50.695Z,16.50
2022-10-08T07:34:50.686Z,17.20
2022-10-08T07:35:50.685Z,17.20
2022-10-08T07:36:50.658Z,17.20
2022-10-08T07:37:50.663Z,16.70
2022-10-08T07:38:50.658Z,16.90
2022-10-08T07:39:50.646Z,17.50
2022-10-08T07:40:50.617Z,16.80
2022-10-08T07:41:50.598Z,17.10
2022-10-08T07:42:50.590Z,16.50
2022-10-08T07:43:50.584Z,16.80
2022-10-08T07:44:50.556Z,16.70
2022-10-08T07:45:50.619Z,16.50
2022-10-08T07:46:50.548Z,18.10
2022-10-08T07:47:50.516Z,17.20
2022-10-08T07:48:50.527Z,17.20
2022-10-08T07:49:50.495Z,16.50
2022-10-08T07:50:50.480Z,16.30
2022-10-08T07:51:50.472Z,16.50
2022-10-08T07:52:50.486Z,16.10
2022-10-08T07:53:50.446Z,17.20
2022-10-08T07:54:50.437Z,16.10
2022-10-08T07:55:50.417Z,16.50
2022-10-08T07:56:50.408Z,16.40
2022-10-08T07:57:50.387Z,16.40
2022-10-08T07:58:50.376Z,16.30
2022-10-08T07:59:50.380Z,15.50
2022-10-08T08:00:50.362Z,15.80
2022-10-08T08:01:50.387Z,15.40
2022-10-08T08:02:50.419Z,15.30
2022-10-08T08:03:50.326Z,16.00
2022-10-08T08:04:50.317Z,15.50
2022-10-08T08:05:50.339Z,14.70
2022-10-08T08:06:50.265Z,14.70
2022-10-08T08:07:53.227Z,14.80
2022-10-08T08:08:50.236Z,14.70
2022-10-08T08:09:50.265Z,14.80
2022-10-08T08:10:50.279Z,15.00
2022-10-08T08:11:50.207Z,15.10
2022-10-08T08:12:50.469Z,15.90
2022-10-08T08:13:50.178Z,14.80
2022-10-08T08:14:50.196Z,14.80
2022-10-08T08:15:50.159Z,14.90
2022-10-08T08:16:50.181Z,14.90
2022-10-08T08:17:50.139Z,14.80
2022-10-08T08:18:50.109Z,14.50
2022-10-08T08:19:50.106Z,14.60
2022-10-08T08:20:50.078Z,14.20
2022-10-08T08:21:50.065Z,14.00
2022-10-08T08:22:50.294Z,13.80
2022-10-08T08:23:50.037Z,14.10
2022-10-08T08:24:50.119Z,13.60
2022-10-08T08:25:50.026Z,13.30
2022-10-08T08:26:50.882Z,13.10
2022-10-08T08:27:50.002Z,13.10
2022-10-08T08:28:50.000Z,13.10
2022-10-08T08:29:49.979Z,13.20
2022-10-08T08:30:49.979Z,13.10
2022-10-08T08:31:50.026Z,12.50
2022-10-08T08:32:50.145Z,12.80
2022-10-08T08:33:49.970Z,13.10
2022-10-08T08:34:49.888Z,12.60
2022-10-08T08:35:50.227Z,12.80
2022-10-08T08:36:49.876Z,12.70
2022-10-08T08:37:49.859Z,12.60
2022-10-08T08:38:49.850Z,12.40
2022-10-08T08:39:49.838Z,12.50
2022-10-08T08:40:49.839Z,12.30
2022-10-08T08:41:49.816Z,12.10
2022-10-08T08:42:50.036Z,12.60
2022-10-08T08:43:49.789Z,11.90
2022-10-08T08:44:49.768Z,11.90
2022-10-08T08:45:49.794Z,11.80
2022-10-08T08:46:49.752Z,11.90
2022-10-08T08:47:49.728Z,11.70
2022-10-08T08:48:49.719Z,12.10
2022-10-08T08:49:50.288Z,11.40
2022-10-08T08:50:49.730Z,11.80
2022-10-08T08:51:49.698Z,11.90
2022-10-08T08:52:50.052Z,11.80
2022-10-08T08:53:49.654Z,11.60
2022-10-08T08:54:49.712Z,12.00
2022-10-08T08:55:49.629Z,11.10
2022-10-08T08:56:49.630Z,11.20
2022-10-08T08:57:49.608Z,10.80
2022-10-08T08:58:49.583Z,10.60
2022-10-08T08:59:49.580Z,11.00
2022-10-08T09:00:49.612Z,10.50
2022-10-08T09:01:49.550Z,10.30
2022-10-08T09:02:49.895Z,10.80
2022-10-08T09:03:49.541Z,10.20
2022-10-08T09:04:49.500Z,10.50
2022-10-08T09:05:49.545Z,10.30
2022-10-08T09:06:49.482Z,10.30
2022-10-08T09:07:49.485Z,10.20
2022-10-08T09:08:49.452Z,10.10
2022-10-08T09:09:49.442Z,10.20
2022-10-08T09:10:49.432Z,10.00
2022-10-08T09:11:49.427Z,9.60
2022-10-08T09:12:50.049Z,9.90
2022-10-08T09:13:49.510Z,9.80
2022-10-08T09:14:49.363Z,10.00
2022-10-08T09:15:49.360Z,9.60
2022-10-08T09:16:49.386Z,9.70
2022-10-08T09:17:49.332Z,9.80
2022-10-08T09:18:49.368Z,9.80
2022-10-08T09:19:49.302Z,9.30
2022-10-08T09:20:49.284Z,9.10
2022-10-08T09:21:49.273Z,9.10
2022-10-08T09:22:49.649Z,9.20
2022-10-08T09:23:49.274Z,9.40
2022-10-08T09:24:49.244Z,9.80
2022-10-08T09:25:49.235Z,9.20
2022-10-08T09:26:49.214Z,9.60
2022-10-08T09:27:49.214Z,8.90
2022-10-08T09:28:49.271Z,8.50
2022-10-08T09:29:49.174Z,8.90
2022-10-08T09:30:49.182Z,9.00
2022-10-08T09:31:49.149Z,8.90
2022-10-08T09:32:49.430Z,8.70
2022-10-08T09:33:49.121Z,9.20
2022-10-08T09:34:49.122Z,8.90
2022-10-08T09:35:49.092Z,9.10
2022-10-08T09:36:49.073Z,9.00
2022-10-08T09:37:49.094Z,8.80
2022-10-08T09:38:49.133Z,9.00
2022-10-08T09:39:49.066Z,8.80
2022-10-08T09:40:49.036Z,9.20
2022-10-08T09:41:49.034Z,8.90
2022-10-08T09:42:49.385Z,9.00
2022-10-08T09:43:48.985Z,8.80
2022-10-08T09:44:49.014Z,8.80
2022-10-08T09:45:49.095Z,9.60
2022-10-08T09:46:49.013Z,8.60
2022-10-08T09:47:48.949Z,9.60
2022-10-08T09:48:48.927Z,8.70
2022-10-08T09:49:48.986Z,8.70
2022-10-08T09:50:48.905Z,8.90
2022-10-08T09:51:48.897Z,8.80
2022-10-08T09:52:49.666Z,8.90
2022-10-08T09:53:48.977Z,8.40
2022-10-08T09:54:48.896Z,9.00
2022-10-08T09:55:48.836Z,7.80
2022-10-08T09:56:48.816Z,8.20
2022-10-08T09:57:48.880Z,8.10
2022-10-08T09:58:48.857Z,7.80
2022-10-08T09:59:48.796Z,8.00
2022-10-08T10:00:49.058Z,8.10
2022-10-08T10:01:48.959Z,8.20
2022-10-08T10:02:49.275Z,8.10
2022-10-08T10:03:48.975Z,8.30
2022-10-08T10:04:48.770Z,8.00
2022-10-08T10:05:48.748Z,7.90
2022-10-08T10:06:48.815Z,7.90
2022-10-08T10:07:48.803Z,8.00
2022-10-08T10:08:48.797Z,7.90
2022-10-08T10:09:48.916Z,7.70
2022-10-08T10:10:48.672Z,7.70
2022-10-08T10:11:48.662Z,7.30
2022-10-08T10:12:49.149Z,7.90
2022-10-08T10:13:48.598Z,7.70
2022-10-08T10:14:48.639Z,7.60
2022-10-08T10:15:48.589Z,7.50
2022-10-08T10:16:48.643Z,8.00
2022-10-08T10:17:48.547Z,7.90
2022-10-08T10:18:48.538Z,7.90
2022-10-08T10:19:48.520Z,7.60
2022-10-08T10:20:48.518Z,7.30
2022-10-08T10:21:48.491Z,7.40
2022-10-08T10:22:48.824Z,7.40
2022-10-08T10:23:48.518Z,7.50
2022-10-08T10:24:48.452Z,7.70
2022-10-08T10:25:48.570Z,8.00
2022-10-08T10:26:48.459Z,7.30
2022-10-08T10:27:48.410Z,7.70
2022-10-08T10:28:48.487Z,7.50
2022-10-08T10:29:48.391Z,7.80
2022-10-08T10:30:48.442Z,7.70
2022-10-08T10:31:48.472Z,7.40
2022-10-08T10:32:48.688Z,7.80
2022-10-08T10:33:48.508Z,7.50
2022-10-08T10:34:48.332Z,7.40
2022-10-08T10:35:48.332Z,7.50
2022-10-08T10:36:48.303Z,7.60
2022-10-08T10:37:48.890Z,7.40
2022-10-08T10:38:48.460Z,7.20
2022-10-08T10:39:48.305Z,7.30
2022-10-08T10:40:48.233Z,7.50
2022-10-08T10:41:48.243Z,7.50
2022-10-08T10:42:48.483Z,7.30
2022-10-08T10:43:48.221Z,7.70
2022-10-08T10:44:48.203Z,7.60
2022-10-08T10:45:48.258Z,7.70
2022-10-08T10:46:48.272Z,7.70
2022-10-08T10:47:48.153Z,7.40
2022-10-08T10:48:48.506Z,7.80
2022-10-08T10:49:48.200Z,7.90
2022-10-08T10:50:48.257Z,7.80
2022-10-08T10:51:48.152Z,7.80
2022-10-08T10:52:48.482Z,7.70
2022-10-08T10:53:48.151Z,7.70
2022-10-08T10:54:48.043Z,7.70
2022-10-08T10:55:52.559Z,7.60
2022-10-08T10:56:49.192Z,7.60
2022-10-08T10:57:48.003Z,7.80
2022-10-08T10:58:48.015Z,7.90
2022-10-08T10:59:48.104Z,8.20
2022-10-08T11:00:47.977Z,7.60
2022-10-08T11:01:48.431Z,7.90
2022-10-08T11:02:48.426Z,7.80
2022-10-08T11:03:47.959Z,8.10
2022-10-08T11:04:47.924Z,8.30
2022-10-08T11:05:48.204Z,8.50
2022-10-08T11:06:48.131Z,8.00
2022-10-08T11:07:48.007Z,8.60
2022-10-08T11:08:47.862Z,8.00
2022-10-08T11:09:47.865Z,7.90
2022-10-08T11:10:47.834Z,8.30
2022-10-08T11:11:47.825Z,9.10
2022-10-08T11:12:48.166Z,8.40
2022-10-08T11:13:47.852Z,8.10
2022-10-08T11:14:47.827Z,8.40
2022-10-08T11:15:47.843Z,7.90
2022-10-08T11:16:47.819Z,8.10
2022-10-08T11:17:47.776Z,7.90
2022-10-08T11:18:47.969Z,8.50
2022-10-08T11:19:47.727Z,8.30
2022-10-08T11:20:47.777Z,8.60
2022-10-08T11:21:47.779Z,7.90
2022-10-08T11:22:48.003Z,8.10
2022-10-08T11:23:47.676Z,8.00
2022-10-08T11:24:47.695Z,7.80
2022-10-08T11:26:14.038Z,7.80
2022-10-08T11:26:48.634Z,7.90
2022-10-08T11:27:47.637Z,7.70
2022-10-08T11:28:47.719Z,7.90
2022-10-08T11:29:47.627Z,8.40
2022-10-08T11:30:47.608Z,8.20
2022-10-08T11:31:47.600Z,8.20
2022-10-08T11:32:47.698Z,8.20
2022-10-08T11:33:47.559Z,8.30
2022-10-08T11:34:47.571Z,8.80
2022-10-08T11:35:47.527Z,8.30
2022-10-08T11:36:47.511Z,8.40
2022-10-08T11:37:47.497Z,8.10
2022-10-08T11:38:47.494Z,8.30
2022-10-08T11:39:47.468Z,8.40
2022-10-08T11:40:47.478Z,8.30
2022-10-08T11:41:47.438Z,8.50
2022-10-08T11:42:49.043Z,8.30
2022-10-08T11:43:47.428Z,8.40
2022-10-08T11:44:47.450Z,8.80
2022-10-08T11:45:47.416Z,8.30
2022-10-08T11:46:47.431Z,8.50
2022-10-08T11:47:47.383Z,8.30
2022-10-08T11:48:47.361Z,8.50
2022-10-08T11:49:47.349Z,8.60
2022-10-08T11:50:47.326Z,8.70
2022-10-08T11:51:47.299Z,8.80
2022-10-08T11:52:47.586Z,8.70
2022-10-08T11:53:47.330Z,8.60
2022-10-08T11:54:50.479Z,8.90
2022-10-08T11:55:48.251Z,9.10
2022-10-08T11:56:47.281Z,8.70
2022-10-08T11:58:07.293Z,9.40
2022-10-08T11:58:48.222Z,8.80
2022-10-08T11:59:47.213Z,9.20
2022-10-08T12:00:47.205Z,9.20
2022-10-08T12:01:47.184Z,9.10
2022-10-08T12:02:48.395Z,9.50
2022-10-08T12:03:47.228Z,9.90
2022-10-08T12:04:47.150Z,9.40
2022-10-08T12:05:50.372Z,9.70
2022-10-08T12:06:47.112Z,9.70
2022-10-08T12:07:47.101Z,9.70
2022-10-08T12:08:47.081Z,9.60
2022-10-08T12:09:47.083Z,10.10
2022-10-08T12:10:47.091Z,10.00
2022-10-08T12:11:47.045Z,9.70
2022-10-08T12:12:47.308Z,9.90
2022-10-08T12:13:47.103Z,10.50
2022-10-08T12:14:47.088Z,9.90
2022-10-08T12:15:47.097Z,10.00
2022-10-08T12:16:46.985Z,10.50
2022-10-08T12:17:46.964Z,10.50
2022-10-08T12:18:46.962Z,10.80
2022-10-08T12:19:46.932Z,10.20
2022-10-08T12:20:46.940Z,10.10
2022-10-08T12:21:46.911Z,10.40
2022-10-08T12:22:47.187Z,10.60
2022-10-08T12:23:46.888Z,10.20
2022-10-08T12:24:50.258Z,10.10
2022-10-08T12:25:46.863Z,10.20
2022-10-08T12:26:46.866Z,10.40
2022-10-08T12:27:46.834Z,10.20
2022-10-08T12:28:46.872Z,11.10
2022-10-08T12:29:46.844Z,10.40
2022-10-08T12:30:46.816Z,10.40
2022-10-08T12:31:49.673Z,10.40
2022-10-08T12:32:47.122Z,10.30
2022-10-08T12:33:46.766Z,10.20
2022-10-08T12:34:46.743Z,10.20
2022-10-08T12:35:46.736Z,10.20
2022-10-08T12:36:46.732Z,10.30
2022-10-08T12:37:47.051Z,10.00
2022-10-08T12:38:46.685Z,9.80
2022-10-08T12:39:46.694Z,10.20
2022-10-08T12:40:46.667Z,10.00
2022-10-08T12:41:46.655Z,10.30
2022-10-08T12:42:46.683Z,10.40
2022-10-08T12:43:46.626Z,10.50
2022-10-08T12:44:46.617Z,10.00
2022-10-08T12:45:46.687Z,10.00
2022-10-08T12:46:50.206Z,9.60
2022-10-08T12:47:46.837Z,9.80
2022-10-08T12:48:46.591Z,9.70
2022-10-08T12:49:46.547Z,10.00
2022-10-08T12:50:46.544Z,9.90
2022-10-08T12:51:46.514Z,9.80
2022-10-08T12:52:46.527Z,9.90
2022-10-08T12:53:46.485Z,9.90
2022-10-08T12:54:46.479Z,9.60
2022-10-08T12:55:46.476Z,9.30
2022-10-08T12:56:46.457Z,9.20
2022-10-08T12:57:46.667Z,9.50
2022-10-08T12:58:46.485Z,9.40